Time;durP1;ratioP1;P1;durP2;ratioP2;P2;SDS_P1;SDS_P2;PMS_P1;PMS_P2;Temp;Humidity;BMP_temperature;BMP_pressure;BME280_temperature;BME280_humidity;BME280_pressure;Samples;Min_cycle;Max_cycle;Signal;HPM_P1;HPM_P2
2023/07/08 05:09:54;;;;;;;;;;;;;;;;;;3388146;26;19925;-40
2023/07/08 05:12:21;;;;;;;;;;;;;;;;;;5079368;28;19973;-39
2023/07/08 05:14:47;;;;;;;;;;;;;;;;;;5090692;28;19919;-40
2023/07/08 05:17:13;;;;;;;;;;;;;;;;;;5090512;28;20376;-40
2023/07/08 05:19:41;;;;;;;;;;;;;;;;;;5090372;28;20006;-40
2023/07/08 05:22:08;;;;;;;;;;;;;;;;;;5091008;28;20180;-40
2023/07/08 05:24:34;;;;;;;;;;;;;;;;;;5090665;28;19912;-40
2023/07/08 05:27:00;;;;;;;;;;;;;;;;;;5090608;28;19919;-40
2023/07/08 05:29:26;;;;;;;;;;;;;;;;;;5071998;28;20009;-40
2023/07/08 05:31:52;;;;;;;;;;;;;;;;;;5090418;28;19912;-40
2023/07/08 05:34:18;;;;;;;;;;;;;;;;;;5090369;28;19919;-40
2023/07/08 05:36:44;;;;;;;;;;;;;;;;;;5090636;28;20368;-40
2023/07/08 05:39:10;;;;;;;;;;;;;;;;;;5090323;28;19999;-40
2023/07/08 05:41:36;;;;;;;;;;;;;;;;;;5090868;28;19908;-40
2023/07/08 05:44:03;;;;;;;;;;;;;;;;;;5089913;28;19917;-40
2023/07/08 05:46:29;;;;;;;;;;;;;;;;;;5090043;28;19912;-40
2023/07/08 05:48:55;;;;;;;;;;;;;;;;;;5089937;28;19914;-40
2023/07/08 05:51:21;;;;;;;;;;;;;;;;;;5090111;28;19908;-40
2023/07/08 05:53:46;;;;;;;;;;;;;;;;;;5089860;28;20450;-40
2023/07/08 05:56:12;;;;;;;;;;;;;;;;;;5071733;28;20002;-40
2023/07/08 05:58:39;;;;;;;;;;;;;;;;;;5089950;28;19916;-41
2023/07/08 06:01:05;;;;;;;;;;;;;;;;;;5086657;28;20003;-40
2023/07/08 06:03:31;;;;;;;;;;;;;;;;;;5089825;28;20010;-40
2023/07/08 06:05:57;;;;;;;;;;;;;;;;;;5091026;28;20016;-40
2023/07/08 06:08:23;;;;;;;;;;;;;;;;;;5089919;28;19923;-40
2023/07/08 06:10:49;;;;;;;;;;;;;;;;;;5088665;28;19952;-40
2023/07/08 06:13:15;;;;;;;;;;;;;;;;;;5090587;28;19916;-41
2023/07/08 06:15:41;;;;;;;;;;;;;;;;;;5090034;28;19966;-40
2023/07/08 06:18:07;;;;;;;;;;;;;;;;;;5090757;28;19965;-40
2023/07/08 06:20:33;;;;;;;;;;;;;;;;;;5090610;28;19908;-41
2023/07/08 06:23:00;;;;;;;;;;;;;;;;;;5090981;28;20007;-40
2023/07/08 06:25:26;;;;;;;;;;;;;;;;;;5090625;28;20382;-40
2023/07/08 06:27:51;;;;;;;;;;;;;;;;;;5093555;28;19927;-40
2023/07/08 06:30:17;;;;;;;;;;;;;;;;;;5090083;28;20009;-40
2023/07/08 06:32:43;;;;;;;;;;;;;;;;;;5090538;28;19908;-40
2023/07/08 06:35:09;;;;;;;;;;;;;;;;;;5090314;28;20048;-40
2023/07/08 06:37:35;;;;;;;;;;;;;;;;;;5087551;28;19916;-40
2023/07/08 06:40:03;;;;;;;;;;;;;;;;;;5088446;28;19916;-40
2023/07/08 06:42:29;;;;;;;;;;;;;;;;;;5089245;28;19912;-40
2023/07/08 06:44:55;;;;;;;;;;;;;;;;;;5087519;28;19912;-40
2023/07/08 06:47:21;;;;;;;;;;;;;;;;;;5090105;28;19923;-40
2023/07/08 06:49:47;;;;;;;;;;;;;;;;;;5087397;28;19912;-40
2023/07/08 06:52:13;;;;;;;;;;;;;;;;;;5089314;28;19923;-40
2023/07/08 06:54:39;;;;;;;;;;;;;;;;;;5089271;28;19916;-40
2023/07/08 06:57:05;;;;;;;;;;;;;;;;;;5090022;28;20018;-40
2023/07/08 06:59:31;;;;;;;;;;;;;;;;;;5085280;28;19930;-40
2023/07/08 07:01:57;;;;;;;;;;;;;;;;;;5080300;28;19908;-40
2023/07/08 07:04:22;;;;;;;;;;;;;;;;;;5077157;28;19974;-40
2023/07/08 07:06:48;;;;;;;;;;;;;;;;;;5089040;28;20007;-40
2023/07/08 07:09:14;;;;;;;;;;;;;;;;;;5086969;28;19967;-40
2023/07/08 07:11:40;;;;;;;;;;;;;;;;;;5080926;28;19920;-38
2023/07/08 07:14:06;;;;;;;;;;;;;;;;;;5088732;28;19908;-37
2023/07/08 07:16:32;;;;;;;;;;;;;;;;;;5086199;28;20355;-37
2023/07/08 07:18:58;;;;;;;;;;;;;;;;;;5088093;28;19912;-37
2023/07/08 07:21:24;;;;;;;;;;;;;;;;;;5088405;28;19912;-38
2023/07/08 07:23:50;;;;;;;;;;;;;;;;;;5088690;28;19953;-38
2023/07/08 07:26:16;;;;;;;;;;;;;;;;;;5089193;28;20027;-37
2023/07/08 07:28:42;;;;;;;;;;;;;;;;;;5076580;28;19930;-38
2023/07/08 07:31:10;;;;;;;;;;;;;;;;;;5090021;28;20305;-38
2023/07/08 07:33:37;;;;;;;;;;;;;;;;;;5097937;28;19999;-38
2023/07/08 07:36:02;;;;;;;;;;;;;;;;;;5085819;28;20492;-38
2023/07/08 07:38:28;;;;;;;;;;;;;;;;;;5084287;28;19913;-38
2023/07/08 07:40:54;;;;;;;;;;;;;;;;;;5086049;28;19916;-38
2023/07/08 07:43:21;;;;;;;;;;;;;;;;;;5069042;28;20023;-38
2023/07/08 07:45:46;;;;;;;;;;;;;;;;;;5088985;28;19908;-38
2023/07/08 07:48:12;;;;;;;;;;;;;;;;;;5085485;28;19927;-38
2023/07/08 07:50:38;;;;;;;;;;;;;;;;;;5085773;28;19962;-38
2023/07/08 07:53:04;;;;;;;;;;;;;;;;;;5085994;28;19916;-38
2023/07/08 07:55:30;;;;;;;;;;;;;;;;;;5088225;28;19912;-38
2023/07/08 07:57:56;;;;;;;;;;;;;;;;;;5087965;28;19977;-38
2023/07/08 08:00:22;;;;;;;;;;;;;;;;;;5087926;28;19916;-38
2023/07/08 08:02:48;;;;;;;;;;;;;;;;;;5086599;28;19916;-38
2023/07/08 08:05:14;;;;;;;;;;;;;;;;;;5088261;28;19970;-38
2023/07/08 08:07:40;;;;;;;;;;;;;;;;;;5087739;28;19922;-38
2023/07/08 08:10:07;;;;;;;;;;;;;;;;;;5084731;28;19955;-38
2023/07/08 08:12:33;;;;;;;;;;;;;;;;;;5087074;28;19927;-38
2023/07/08 08:14:58;;;;;;;;;;;;;;;;;;5087765;28;19912;-38
2023/07/08 08:17:24;;;;;;;;;;;;;;;;;;5080608;28;19920;-38
2023/07/08 08:19:50;;;;;;;;;;;;;;;;;;5087728;28;19934;-39
2023/07/08 08:22:16;;;;;;;;;;;;;;;;;;5088256;28;19951;-38
2023/07/08 08:24:42;;;;;;;;;;;;;;;;;;5069312;28;19920;-38
2023/07/08 08:27:08;;;;;;;;;;;;;;;;;;5087184;28;19939;-38
2023/07/08 08:29:34;;;;;;;;;;;;;;;;;;5087597;28;19995;-38
2023/07/08 08:32:00;;;;;;;;;;;;;;;;;;5099553;28;20011;-38
2023/07/08 08:34:26;;;;;;;;;;;;;;;;;;5087721;28;19931;-38
2023/07/08 08:36:55;;;;;;;;;;;;;;;;;;5088134;28;19974;-38
2023/07/08 08:39:21;;;;;;;;;;;;;;;;;;5087604;28;19999;-38
2023/07/08 08:41:47;;;;;;;;;;;;;;;;;;5084712;28;20008;-38
2023/07/08 08:44:13;;;;;;;;;;;;;;;;;;5076933;28;19916;-38
2023/07/08 08:46:39;;;;;;;;;;;;;;;;;;5087714;28;20606;-38
2023/07/08 08:49:05;;;;;;;;;;;;;;;;;;5087748;28;19908;-38
2023/07/08 08:51:31;;;;;;;;;;;;;;;;;;5087516;28;19934;-38
2023/07/08 08:53:57;;;;;;;;;;;;;;;;;;5086700;28;19947;-38
2023/07/08 08:56:23;;;;;;;;;;;;;;;;;;5086581;28;19935;-38
2023/07/08 08:58:50;;;;;;;;;;;;;;;;;;5085600;28;19958;-38
2023/07/08 09:01:16;;;;;;;;;;;;;;;;;;5076232;28;19958;-41
2023/07/08 09:03:42;;;;;;;;;;;;;;;;;;5082476;28;19920;-41
2023/07/08 09:06:08;;;;;;;;;;;;;;;;;;5075368;28;19917;-41
2023/07/08 09:08:34;;;;;;;;;;;;;;;;;;5079472;28;19943;-41
2023/07/08 09:11:00;;;;;;;;;;;;;;;;;;5086840;28;19916;-41
2023/07/08 09:13:26;;;;;;;;;;;;;;;;;;5085382;28;19916;-41
2023/07/08 09:15:52;;;;;;;;;;;;;;;;;;5085512;28;19912;-41
2023/07/08 09:18:18;;;;;;;;;;;;;;;;;;5087961;28;19950;-41
2023/07/08 09:20:44;;;;;;;;;;;;;;;;;;5075013;28;19947;-41
2023/07/08 09:23:10;;;;;;;;;;;;;;;;;;5070737;28;20016;-41
2023/07/08 09:25:36;;;;;;;;;;;;;;;;;;5070789;28;19908;-41
2023/07/08 09:28:02;;;;;;;;;;;;;;;;;;5070731;28;19929;-41
2023/07/08 09:30:31;;;;;;;;;;;;;;;;;;5071272;28;19909;-41
2023/07/08 09:32:57;;;;;;;;;;;;;;;;;;5071222;28;19912;-40
2023/07/08 09:35:23;;;;;;;;;;;;;;;;;;5070492;28;19913;-41
2023/07/08 09:37:49;;;;;;;;;;;;;;;;;;5070791;28;19919;-41
2023/07/08 09:40:15;;;;;;;;;;;;;;;;;;5070714;28;19935;-41
2023/07/08 09:42:41;;;;;;;;;;;;;;;;;;5070372;28;19913;-41
2023/07/08 09:45:09;;;;;;;;;;;;;;;;;;5070392;28;20020;-41
2023/07/08 09:47:35;;;;;;;;;;;;;;;;;;5070398;28;19916;-41
2023/07/08 09:50:01;;;;;;;;;;;;;;;;;;5070938;28;19923;-41
2023/07/08 09:52:27;;;;;;;;;;;;;;;;;;5070218;28;19978;-41
2023/07/08 09:54:53;;;;;;;;;;;;;;;;;;5086487;28;19912;-41
2023/07/08 09:57:19;;;;;;;;;;;;;;;;;;5090215;28;20027;-40
2023/07/08 09:59:45;;;;;;;;;;;;;;;;;;5090145;28;19915;-41
2023/07/08 10:02:11;;;;;;;;;;;;;;;;;;5090236;28;19920;-41
2023/07/08 10:04:37;;;;;;;;;;;;;;;;;;5090270;28;19944;-41
2023/07/08 10:07:03;;;;;;;;;;;;;;;;;;5089793;28;20347;-41
2023/07/08 10:09:31;;;;;;;;;;;;;;;;;;5090377;28;20403;-41
2023/07/08 10:11:57;;;;;;;;;;;;;;;;;;5088833;28;19916;-41
2023/07/08 10:14:22;;;;;;;;;;;;;;;;;;5085843;28;19916;-40
2023/07/08 10:16:49;;;;;;;;;;;;;;;;;;5087219;28;20409;-41
2023/07/08 10:19:16;;;;;;;;;;;;;;;;;;5080698;28;20410;-40
2023/07/08 10:21:42;;;;;;;;;;;;;;;;;;5068512;28;19992;-41
2023/07/08 10:24:08;;;;;;;;;;;;;;;;;;5075971;28;20003;-41
2023/07/08 10:26:34;;;;;;;;;;;;;;;;;;5087549;28;19920;-41
2023/07/08 10:29:01;;;;;;;;;;;;;;;;;;5086238;28;19912;-41
2023/07/08 10:31:27;;;;;;;;;;;;;;;;;;5096846;28;20157;-41
2023/07/08 10:33:53;;;;;;;;;;;;;;;;;;5101180;28;19912;-41
2023/07/08 10:36:19;;;;;;;;;;;;;;;;;;5071859;28;19913;-41
2023/07/08 10:38:44;;;;;;;;;;;;;;;;;;5071089;28;19962;-41
2023/07/08 10:41:10;;;;;;;;;;;;;;;;;;5086365;28;19978;-40
2023/07/08 10:43:37;;;;;;;;;;;;;;;;;;5086212;28;19924;-41
2023/07/08 10:46:03;;;;;;;;;;;;;;;;;;5086122;28;19912;-41
2023/07/08 10:48:29;;;;;;;;;;;;;;;;;;5086863;28;19923;-41
2023/07/08 10:50:55;;;;;;;;;;;;;;;;;;5086006;28;20350;-41
2023/07/08 10:53:21;;;;;;;;;;;;;;;;;;5084886;28;19996;-41
2023/07/08 10:55:47;;;;;;;;;;;;;;;;;;5086266;28;20413;-41
2023/07/08 10:58:13;;;;;;;;;;;;;;;;;;5084963;28;19908;-41
2023/07/08 11:00:39;;;;;;;;;;;;;;;;;;5084300;28;19934;-41
2023/07/08 11:03:05;;;;;;;;;;;;;;;;;;5084744;28;19912;-41
2023/07/08 11:05:32;;;;;;;;;;;;;;;;;;5095433;28;19916;-41
2023/07/08 11:07:58;;;;;;;;;;;;;;;;;;5093599;28;20270;-41
2023/07/08 11:10:24;;;;;;;;;;;;;;;;;;5084497;28;19912;-40
2023/07/08 11:12:50;;;;;;;;;;;;;;;;;;5083580;28;19920;-41
2023/07/08 11:15:16;;;;;;;;;;;;;;;;;;5085351;28;19969;-41
2023/07/08 11:17:42;;;;;;;;;;;;;;;;;;5085220;28;20029;-41
2023/07/08 11:20:08;;;;;;;;;;;;;;;;;;5084431;28;20135;-41
2023/07/08 11:22:34;;;;;;;;;;;;;;;;;;5083447;28;19953;-41
2023/07/08 11:25:00;;;;;;;;;;;;;;;;;;5084633;28;19916;-42
2023/07/08 11:27:27;;;;;;;;;;;;;;;;;;5084138;28;20396;-41
2023/07/08 11:29:53;;;;;;;;;;;;;;;;;;5083458;28;20371;-41
2023/07/08 11:32:19;;;;;;;;;;;;;;;;;;5085406;28;20125;-41
2023/07/08 11:34:45;;;;;;;;;;;;;;;;;;5085269;28;19912;-41
2023/07/08 11:37:10;;;;;;;;;;;;;;;;;;5083508;28;20015;-41
2023/07/08 11:39:36;;;;;;;;;;;;;;;;;;5085071;28;19915;-41
2023/07/08 11:42:02;;;;;;;;;;;;;;;;;;5079219;28;19912;-41
2023/07/08 11:44:28;;;;;;;;;;;;;;;;;;5106257;28;19943;-41
2023/07/08 11:46:55;;;;;;;;;;;;;;;;;;5097083;28;19915;-41
2023/07/08 11:49:21;;;;;;;;;;;;;;;;;;5085047;28;19912;-42
2023/07/08 11:51:47;;;;;;;;;;;;;;;;;;5085364;28;19920;-42
2023/07/08 11:54:14;;;;;;;;;;;;;;;;;;5085107;28;20014;-41
2023/07/08 11:56:40;;;;;;;;;;;;;;;;;;5084888;28;19912;-41
2023/07/08 11:59:05;;;;;;;;;;;;;;;;;;5093453;28;19919;-41
2023/07/08 12:01:31;;;;;;;;;;;;;;;;;;5098973;28;20019;-41
2023/07/08 12:03:57;;;;;;;;;;;;;;;;;;5085675;28;19912;-42
2023/07/08 12:06:23;;;;;;;;;;;;;;;;;;5084917;28;19912;-42
2023/07/08 12:08:49;;;;;;;;;;;;;;;;;;5083132;28;19931;-42
2023/07/08 12:11:15;;;;;;;;;;;;;;;;;;5104682;28;19911;-42
2023/07/08 12:13:41;;;;;;;;;;;;;;;;;;5105263;28;19914;-41
2023/07/08 12:16:07;;;;;;;;;;;;;;;;;;5086853;28;19935;-41
2023/07/08 12:18:32;;;;;;;;;;;;;;;;;;5085324;28;20266;-41
2023/07/08 12:20:58;;;;;;;;;;;;;;;;;;5081827;28;19920;-41
2023/07/08 12:23:24;;;;;;;;;;;;;;;;;;5081196;28;19912;-42
2023/07/08 12:25:51;;;;;;;;;;;;;;;;;;5082508;28;19938;-41
2023/07/08 12:28:17;;;;;;;;;;;;;;;;;;5084821;28;20063;-41
2023/07/08 12:30:43;;;;;;;;;;;;;;;;;;5083202;28;19912;-41
2023/07/08 12:33:09;;;;;;;;;;;;;;;;;;5084333;28;19947;-41
2023/07/08 12:35:36;;;;;;;;;;;;;;;;;;5082879;28;19916;-41
2023/07/08 12:38:02;;;;;;;;;;;;;;;;;;5086430;28;20333;-41
2023/07/08 12:40:29;;;;;;;;;;;;;;;;;;5087138;28;19912;-41
2023/07/08 12:42:56;;;;;;;;;;;;;;;;;;5098350;28;19912;-41
2023/07/08 12:45:21;;;;;;;;;;;;;;;;;;5082639;28;19916;-41
2023/07/08 12:47:48;;;;;;;;;;;;;;;;;;5083059;28;20476;-41
2023/07/08 12:50:14;;;;;;;;;;;;;;;;;;5084402;28;19919;-41
2023/07/08 12:52:39;;;;;;;;;;;;;;;;;;5081599;28;19916;-41
2023/07/08 12:55:05;;;;;;;;;;;;;;;;;;5079432;28;20264;-41
2023/07/08 12:57:31;;;;;;;;;;;;;;;;;;5083953;28;19916;-41
2023/07/08 12:59:57;;;;;;;;;;;;;;;;;;5086169;28;20340;-41
2023/07/08 13:02:23;;;;;;;;;;;;;;;;;;5089165;28;19919;-41
2023/07/08 13:04:49;;;;;;;;;;;;;;;;;;5088075;28;19931;-41
2023/07/08 13:07:15;;;;;;;;;;;;;;;;;;5086491;28;19920;-41
2023/07/08 13:09:41;;;;;;;;;;;;;;;;;;5087846;28;20456;-41
2023/07/08 13:12:08;;;;;;;;;;;;;;;;;;5084851;28;19994;-41
2023/07/08 13:14:35;;;;;;;;;;;;;;;;;;5077546;28;19909;-41
2023/07/08 13:17:01;;;;;;;;;;;;;;;;;;5074293;28;19986;-41
2023/07/08 13:19:27;;;;;;;;;;;;;;;;;;5090374;28;19947;-41
2023/07/08 13:21:53;;;;;;;;;;;;;;;;;;5090430;28;19978;-41
2023/07/08 13:24:19;;;;;;;;;;;;;;;;;;5090383;28;19912;-41
2023/07/08 13:26:45;;;;;;;;;;;;;;;;;;5071254;28;19935;-41
2023/07/08 13:29:11;;;;;;;;;;;;;;;;;;5086051;28;19947;-41
2023/07/08 13:31:37;;;;;;;;;;;;;;;;;;5090044;28;19908;-41
2023/07/08 13:34:04;;;;;;;;;;;;;;;;;;5090706;28;20000;-42
2023/07/08 13:36:29;;;;;;;;;;;;;;;;;;5089977;28;19908;-41
2023/07/08 13:38:55;;;;;;;;;;;;;;;;;;5090091;28;20121;-41
2023/07/08 13:41:21;;;;;;;;;;;;;;;;;;5089398;28;19943;-41
2023/07/08 13:43:47;;;;;;;;;;;;;;;;;;5090057;28;19912;-41
2023/07/08 13:46:13;;;;;;;;;;;;;;;;;;5089836;28;19914;-41
2023/07/08 13:48:39;;;;;;;;;;;;;;;;;;5089821;28;19934;-41
2023/07/08 13:51:05;;;;;;;;;;;;;;;;;;5089854;28;20015;-41
2023/07/08 13:53:31;;;;;;;;;;;;;;;;;;5090362;28;20140;-42
2023/07/08 13:55:57;;;;;;;;;;;;;;;;;;5089624;28;19919;-41
2023/07/08 13:58:23;;;;;;;;;;;;;;;;;;5089012;28;19995;-42
2023/07/08 14:00:49;;;;;;;;;;;;;;;;;;5088239;28;19912;-42
2023/07/08 14:03:15;;;;;;;;;;;;;;;;;;5089846;28;19908;-39
2023/07/08 14:05:41;;;;;;;;;;;;;;;;;;5088825;28;19912;-39
2023/07/08 14:08:07;;;;;;;;;;;;;;;;;;5089465;28;19952;-39
2023/07/08 14:10:33;;;;;;;;;;;;;;;;;;5089546;28;19939;-39
2023/07/08 14:12:58;;;;;;;;;;;;;;;;;;5089413;28;19916;-39
2023/07/08 14:15:24;;;;;;;;;;;;;;;;;;5089392;28;20006;-39
2023/07/08 14:17:51;;;;;;;;;;;;;;;;;;5089389;28;19912;-39
2023/07/08 14:20:17;;;;;;;;;;;;;;;;;;5088829;28;19947;-39
2023/07/08 14:22:43;;;;;;;;;;;;;;;;;;5088896;28;19912;-39
2023/07/08 14:25:09;;;;;;;;;;;;;;;;;;5088992;28;19915;-39
2023/07/08 14:27:35;;;;;;;;;;;;;;;;;;5089697;28;19943;-39
2023/07/08 14:30:01;;;;;;;;;;;;;;;;;;5088749;28;19916;-39
2023/07/08 14:32:27;;;;;;;;;;;;;;;;;;5088248;28;19920;-39
2023/07/08 14:34:53;;;;;;;;;;;;;;;;;;5089064;28;19909;-39
2023/07/08 14:37:19;;;;;;;;;;;;;;;;;;5088932;28;19968;-39
2023/07/08 14:39:48;;;;;;;;;;;;;;;;;;5088655;28;19994;-39
2023/07/08 14:42:14;;;;;;;;;;;;;;;;;;5088738;28;20313;-39
2023/07/08 14:44:39;;;;;;;;;;;;;;;;;;5088311;28;19919;-39
2023/07/08 14:47:05;;;;;;;;;;;;;;;;;;5089248;28;19912;-39
2023/07/08 14:49:31;;;;;;;;;;;;;;;;;;5088559;28;19963;-39
2023/07/08 14:51:57;;;;;;;;;;;;;;;;;;5088718;28;19912;-39
2023/07/08 14:54:23;;;;;;;;;;;;;;;;;;5088454;28;19908;-40
2023/07/08 14:56:49;;;;;;;;;;;;;;;;;;5088539;28;19931;-39
2023/07/08 14:59:15;;;;;;;;;;;;;;;;;;5088062;28;20567;-41
2023/07/08 15:01:41;;;;;;;;;;;;;;;;;;5088298;28;20029;-41
2023/07/08 15:04:07;;;;;;;;;;;;;;;;;;5087823;28;19912;-42
2023/07/08 15:06:33;;;;;;;;;;;;;;;;;;5089057;28;19908;-42
2023/07/08 15:08:59;;;;;;;;;;;;;;;;;;5088052;28;19919;-41
2023/07/08 15:11:26;;;;;;;;;;;;;;;;;;5087882;28;19916;-42
2023/07/08 15:13:52;;;;;;;;;;;;;;;;;;5088344;28;20011;-42
2023/07/08 15:16:18;;;;;;;;;;;;;;;;;;5086800;28;20033;-42
2023/07/08 15:18:44;;;;;;;;;;;;;;;;;;5088166;28;19931;-42
2023/07/08 15:21:10;;;;;;;;;;;;;;;;;;5087944;28;19908;-42
2023/07/08 15:23:36;;;;;;;;;;;;;;;;;;5087967;28;19912;-42
2023/07/08 15:26:02;;;;;;;;;;;;;;;;;;5088648;28;19912;-42
2023/07/08 15:28:28;;;;;;;;;;;;;;;;;;5088172;28;19939;-42
2023/07/08 15:30:54;;;;;;;;;;;;;;;;;;5087897;28;19908;-42
2023/07/08 15:33:20;;;;;;;;;;;;;;;;;;5086733;28;20003;-42
2023/07/08 15:35:46;;;;;;;;;;;;;;;;;;5087711;28;19938;-42
2023/07/08 15:38:12;;;;;;;;;;;;;;;;;;5087617;28;19920;-42
2023/07/08 15:40:38;;;;;;;;;;;;;;;;;;5087596;28;19960;-42
2023/07/08 15:43:05;;;;;;;;;;;;;;;;;;5088439;28;19915;-42
2023/07/08 15:45:32;;;;;;;;;;;;;;;;;;5088108;28;19920;-41
2023/07/08 15:47:58;;;;;;;;;;;;;;;;;;5086733;28;19916;-41
2023/07/08 15:50:24;;;;;;;;;;;;;;;;;;5087733;28;19931;-42
2023/07/08 15:52:50;;;;;;;;;;;;;;;;;;5087613;28;19914;-41
2023/07/08 15:55:15;;;;;;;;;;;;;;;;;;5086860;28;20056;-41
2023/07/08 15:57:41;;;;;;;;;;;;;;;;;;5085858;28;20209;-42
2023/07/08 16:00:08;;;;;;;;;;;;;;;;;;5085907;28;20007;-42
2023/07/08 16:02:36;;;;;;;;;;;;;;;;;;5086434;28;19908;-41
2023/07/08 16:05:02;;;;;;;;;;;;;;;;;;5086708;28;19908;-42
2023/07/08 16:07:28;;;;;;;;;;;;;;;;;;5085649;28;19920;-42
2023/07/08 16:09:54;;;;;;;;;;;;;;;;;;5085656;28;19978;-42
2023/07/08 16:12:20;;;;;;;;;;;;;;;;;;5086059;28;19916;-42
2023/07/08 16:14:46;;;;;;;;;;;;;;;;;;5085899;28;19931;-42
2023/07/08 16:17:11;;;;;;;;;;;;;;;;;;5083657;28;19965;-42
2023/07/08 16:19:37;;;;;;;;;;;;;;;;;;5085718;28;20372;-42
2023/07/08 16:22:06;;;;;;;;;;;;;;;;;;5086417;28;20007;-42
2023/07/08 16:24:32;;;;;;;;;;;;;;;;;;5084899;28;20302;-42
2023/07/08 16:26:58;;;;;;;;;;;;;;;;;;5085409;28;19943;-42
2023/07/08 16:29:24;;;;;;;;;;;;;;;;;;5089780;28;20003;-42
2023/07/08 16:31:50;;;;;;;;;;;;;;;;;;5089019;28;19912;-42
2023/07/08 16:34:15;;;;;;;;;;;;;;;;;;5089742;28;19908;-42
2023/07/08 16:36:42;;;;;;;;;;;;;;;;;;5089679;28;19923;-42
2023/07/08 16:39:08;;;;;;;;;;;;;;;;;;5087934;28;19947;-42
2023/07/08 16:41:37;;;;;;;;;;;;;;;;;;5091372;28;20393;-42
2023/07/08 16:44:03;;;;;;;;;;;;;;;;;;5091570;28;20382;-42
2023/07/08 16:46:29;;;;;;;;;;;;;;;;;;5091078;28;20271;-42
2023/07/08 16:48:55;;;;;;;;;;;;;;;;;;5090391;28;19938;-42
2023/07/08 16:51:21;;;;;;;;;;;;;;;;;;5090787;28;20008;-42
2023/07/08 16:53:47;;;;;;;;;;;;;;;;;;5090660;28;19915;-42
2023/07/08 16:56:13;;;;;;;;;;;;;;;;;;5090861;28;19912;-42
2023/07/08 16:58:39;;;;;;;;;;;;;;;;;;5090716;28;19908;-42
2023/07/08 17:01:06;;;;;;;;;;;;;;;;;;5091380;28;19908;-42
2023/07/08 17:03:32;;;;;;;;;;;;;;;;;;5091261;28;19920;-42
2023/07/08 17:05:58;;;;;;;;;;;;;;;;;;5089459;28;20574;-43
2023/07/08 17:08:24;;;;;;;;;;;;;;;;;;5090367;28;19977;-42
2023/07/08 17:10:50;;;;;;;;;;;;;;;;;;5089463;28;19939;-42
2023/07/08 17:13:16;;;;;;;;;;;;;;;;;;5090314;28;19923;-42
2023/07/08 17:15:42;;;;;;;;;;;;;;;;;;5090149;28;19973;-42
2023/07/08 17:18:08;;;;;;;;;;;;;;;;;;5090314;28;19920;-42
2023/07/08 17:20:34;;;;;;;;;;;;;;;;;;5090432;28;19912;-42
2023/07/08 17:22:59;;;;;;;;;;;;;;;;;;5086877;28;19998;-42
2023/07/08 17:25:26;;;;;;;;;;;;;;;;;;5088687;28;19919;-42
2023/07/08 17:27:53;;;;;;;;;;;;;;;;;;5070289;28;19916;-42
2023/07/08 17:30:19;;;;;;;;;;;;;;;;;;5086713;28;20069;-42
2023/07/08 17:32:47;;;;;;;;;;;;;;;;;;5088362;28;19912;-42
2023/07/08 17:35:14;;;;;;;;;;;;;;;;;;5087277;28;19965;-42
2023/07/08 17:37:40;;;;;;;;;;;;;;;;;;5088232;28;19927;-42
2023/07/08 17:40:07;;;;;;;;;;;;;;;;;;5087272;28;19904;-42
2023/07/08 17:42:33;;;;;;;;;;;;;;;;;;5086621;28;20533;-42
2023/07/08 17:44:59;;;;;;;;;;;;;;;;;;5088370;28;19916;-42
2023/07/08 17:47:24;;;;;;;;;;;;;;;;;;5087930;28;20002;-42
2023/07/08 17:49:50;;;;;;;;;;;;;;;;;;5089577;28;19916;-42
2023/07/08 17:52:16;;;;;;;;;;;;;;;;;;5085689;28;19930;-42
2023/07/08 17:54:42;;;;;;;;;;;;;;;;;;5063206;28;20039;-42
2023/07/08 17:57:08;;;;;;;;;;;;;;;;;;5082573;28;19916;-44
2023/07/08 17:59:35;;;;;;;;;;;;;;;;;;5084638;28;19908;-42
2023/07/08 18:02:01;;;;;;;;;;;;;;;;;;5085708;28;19912;-42
2023/07/08 18:04:27;;;;;;;;;;;;;;;;;;5080550;28;19942;-42
2023/07/08 18:06:53;;;;;;;;;;;;;;;;;;5080975;28;20572;-42
2023/07/08 18:09:18;;;;;;;;;;;;;;;;;;5084970;28;19961;-43
2023/07/08 18:11:44;;;;;;;;;;;;;;;;;;5096257;28;19922;-43
2023/07/08 18:14:11;;;;;;;;;;;;;;;;;;5086057;28;20207;-42
2023/07/08 18:16:38;;;;;;;;;;;;;;;;;;5081079;28;20414;-43
2023/07/08 18:19:04;;;;;;;;;;;;;;;;;;5077755;28;20014;-43
2023/07/08 18:21:31;;;;;;;;;;;;;;;;;;5084145;28;20019;-43
2023/07/08 18:23:58;;;;;;;;;;;;;;;;;;5082443;28;19913;-42
2023/07/08 18:26:24;;;;;;;;;;;;;;;;;;5078572;28;19917;-42
2023/07/08 18:28:50;;;;;;;;;;;;;;;;;;5080470;28;19916;-42
2023/07/08 18:31:17;;;;;;;;;;;;;;;;;;5081318;28;19912;-43
2023/07/08 18:33:43;;;;;;;;;;;;;;;;;;5080855;28;20037;-42
2023/07/08 18:36:09;;;;;;;;;;;;;;;;;;5071782;28;19934;-43
2023/07/08 18:38:36;;;;;;;;;;;;;;;;;;5081194;28;20333;-42
2023/07/08 18:41:02;;;;;;;;;;;;;;;;;;5082803;28;19916;-43
2023/07/08 18:43:29;;;;;;;;;;;;;;;;;;5065767;28;19969;-43
2023/07/08 18:45:55;;;;;;;;;;;;;;;;;;5084053;28;19912;-42
2023/07/08 18:48:21;;;;;;;;;;;;;;;;;;5083013;28;19923;-42
2023/07/08 18:50:47;;;;;;;;;;;;;;;;;;5079840;28;19916;-42
2023/07/08 18:53:13;;;;;;;;;;;;;;;;;;5084160;28;20117;-42
2023/07/08 18:55:39;;;;;;;;;;;;;;;;;;5083460;28;19923;-42
2023/07/08 18:58:06;;;;;;;;;;;;;;;;;;5082011;28;19912;-44
2023/07/08 19:00:32;;;;;;;;;;;;;;;;;;5081117;28;19916;-42
2023/07/08 19:02:58;;;;;;;;;;;;;;;;;;5080957;28;20401;-42
2023/07/08 19:05:24;;;;;;;;;;;;;;;;;;5079169;28;19943;-42
2023/07/08 19:07:50;;;;;;;;;;;;;;;;;;5081778;28;19924;-42
2023/07/08 19:10:16;;;;;;;;;;;;;;;;;;5084104;28;19912;-42
2023/07/08 19:12:42;;;;;;;;;;;;;;;;;;5085509;28;19959;-42
2023/07/08 19:15:08;;;;;;;;;;;;;;;;;;5084979;28;20438;-43
2023/07/08 19:17:35;;;;;;;;;;;;;;;;;;5083530;28;19954;-42
2023/07/08 19:20:01;;;;;;;;;;;;;;;;;;5067257;28;20386;-43
2023/07/08 19:22:27;;;;;;;;;;;;;;;;;;5083517;28;20015;-43
2023/07/08 19:24:53;;;;;;;;;;;;;;;;;;5084879;28;19925;-42
2023/07/08 19:27:19;;;;;;;;;;;;;;;;;;5063753;28;20356;-43
2023/07/08 19:29:46;;;;;;;;;;;;;;;;;;5066794;28;20128;-43
2023/07/08 19:32:12;;;;;;;;;;;;;;;;;;5077716;28;19977;-43
2023/07/08 19:34:38;;;;;;;;;;;;;;;;;;5085117;28;20415;-43
2023/07/08 19:37:05;;;;;;;;;;;;;;;;;;5084023;28;19968;-45
2023/07/08 19:39:30;;;;;;;;;;;;;;;;;;5084610;28;19912;-42
2023/07/08 19:41:56;;;;;;;;;;;;;;;;;;5083128;28;20006;-42
2023/07/08 19:44:22;;;;;;;;;;;;;;;;;;5081958;28;20533;-43
2023/07/08 19:46:48;;;;;;;;;;;;;;;;;;5085089;28;19919;-44
2023/07/08 19:49:14;;;;;;;;;;;;;;;;;;5084204;28;20040;-42
2023/07/08 19:51:41;;;;;;;;;;;;;;;;;;5082969;28;20367;-44
2023/07/08 19:54:07;;;;;;;;;;;;;;;;;;5062863;28;19934;-42
2023/07/08 19:56:33;;;;;;;;;;;;;;;;;;5069962;28;20045;-42
2023/07/08 19:58:59;;;;;;;;;;;;;;;;;;5084329;28;20034;-42
2023/07/08 20:01:26;;;;;;;;;;;;;;;;;;5065054;28;19920;-42
2023/07/08 20:03:51;;;;;;;;;;;;;;;;;;5082596;28;19912;-43
2023/07/08 20:06:18;;;;;;;;;;;;;;;;;;5084333;28;19908;-42
2023/07/08 20:08:44;;;;;;;;;;;;;;;;;;5083751;28;19920;-42
2023/07/08 20:11:09;;;;;;;;;;;;;;;;;;5083071;28;19923;-42
2023/07/08 20:13:35;;;;;;;;;;;;;;;;;;5082836;28;20382;-41
2023/07/08 20:16:02;;;;;;;;;;;;;;;;;;5087061;28;19912;-42
2023/07/08 20:18:29;;;;;;;;;;;;;;;;;;5096995;28;19912;-42
2023/07/08 20:20:58;;;;;;;;;;;;;;;;;;5080781;28;20235;-42
2023/07/08 20:23:25;;;;;;;;;;;;;;;;;;5066072;28;20236;-42
2023/07/08 20:25:51;;;;;;;;;;;;;;;;;;5082589;28;19916;-42
2023/07/08 20:28:18;;;;;;;;;;;;;;;;;;5084350;28;19989;-42
2023/07/08 20:30:44;;;;;;;;;;;;;;;;;;5084713;28;19912;-42
2023/07/08 20:33:12;;;;;;;;;;;;;;;;;;5079429;28;19918;-42
2023/07/08 20:35:38;;;;;;;;;;;;;;;;;;5082536;28;19958;-42
2023/07/08 20:38:04;;;;;;;;;;;;;;;;;;5082684;28;20363;-42
2023/07/08 20:40:30;;;;;;;;;;;;;;;;;;5063398;28;20549;-42
2023/07/08 20:42:57;;;;;;;;;;;;;;;;;;5084134;28;19908;-41
2023/07/08 20:45:23;;;;;;;;;;;;;;;;;;5084042;28;20378;-42
2023/07/08 20:47:50;;;;;;;;;;;;;;;;;;5083708;28;20433;-41
2023/07/08 20:50:16;;;;;;;;;;;;;;;;;;5081923;28;21060;-42
2023/07/08 20:52:42;;;;;;;;;;;;;;;;;;5083878;28;19916;-41
2023/07/08 20:55:09;;;;;;;;;;;;;;;;;;5079934;28;19912;-42
2023/07/08 20:57:35;;;;;;;;;;;;;;;;;;5082482;28;19939;-42
2023/07/08 21:00:01;;;;;;;;;;;;;;;;;;5081869;28;19913;-42
2023/07/08 21:02:26;;;;;;;;;;;;;;;;;;5053532;28;19916;-42
2023/07/08 21:04:52;;;;;;;;;;;;;;;;;;5084389;28;19915;-42
2023/07/08 21:07:18;;;;;;;;;;;;;;;;;;5080756;28;19912;-42
2023/07/08 21:09:44;;;;;;;;;;;;;;;;;;5080892;28;19916;-42
2023/07/08 21:12:11;;;;;;;;;;;;;;;;;;5082325;28;20046;-42
2023/07/08 21:14:37;;;;;;;;;;;;;;;;;;5083373;28;19935;-42
2023/07/08 21:17:03;;;;;;;;;;;;;;;;;;5086471;28;19913;-42
2023/07/08 21:19:30;;;;;;;;;;;;;;;;;;5068114;28;19943;-42
2023/07/08 21:21:56;;;;;;;;;;;;;;;;;;5082388;28;20402;-41
2023/07/08 21:24:22;;;;;;;;;;;;;;;;;;5084124;28;19920;-42
2023/07/08 21:26:48;;;;;;;;;;;;;;;;;;5086088;28;19912;-41
2023/07/08 21:29:14;;;;;;;;;;;;;;;;;;5087208;28;19912;-41
2023/07/08 21:31:40;;;;;;;;;;;;;;;;;;5087526;28;20383;-41
2023/07/08 21:34:07;;;;;;;;;;;;;;;;;;5086663;28;20010;-41
2023/07/08 21:36:34;;;;;;;;;;;;;;;;;;5086609;28;19989;-41
2023/07/08 21:39:01;;;;;;;;;;;;;;;;;;5087343;28;19974;-41
2023/07/08 21:41:27;;;;;;;;;;;;;;;;;;5087708;28;19914;-41
2023/07/08 21:43:53;;;;;;;;;;;;;;;;;;5087760;28;19912;-41
2023/07/08 21:46:20;;;;;;;;;;;;;;;;;;5087011;28;19912;-41